sensor_id;sensor_type;location;lat;lon;timestamp;P1;durP1;ratioP1;P2;durP2;ratioP2
21677;SDS011;11000;50.360;7.582;2022-12-13T00:00:33;28.37;;;13.53;;
21677;SDS011;11000;50.360;7.582;2022-12-13T00:02:54;27.00;;;13.27;;
21677;SDS011;11000;50.360;7.582;2022-12-13T00:05:14;25.40;;;13.40;;
21677;SDS011;11000;50.360;7.582;2022-12-13T00:07:35;29.67;;;14.37;;
21677;SDS011;11000;50.360;7.582;2022-12-13T00:09:55;35.27;;;15.50;;
21677;SDS011;11000;50.360;7.582;2022-12-13T00:12:16;32.77;;;15.13;;
21677;SDS011;11000;50.360;7.582;2022-12-13T00:14:36;26.90;;;15.13;;
21677;SDS011;11000;50.360;7.582;2022-12-13T00:16:57;30.67;;;15.30;;
21677;SDS011;11000;50.360;7.582;2022-12-13T00:19:17;27.30;;;14.43;;
21677;SDS011;11000;50.360;7.582;2022-12-13T00:21:38;30.80;;;14.83;;
21677;SDS011;11000;50.360;7.582;2022-12-13T00:23:59;31.70;;;15.40;;
21677;SDS011;11000;50.360;7.582;2022-12-13T00:26:22;31.63;;;15.77;;
21677;SDS011;11000;50.360;7.582;2022-12-13T00:28:44;32.87;;;15.87;;
21677;SDS011;11000;50.360;7.582;2022-12-13T00:31:07;30.73;;;15.50;;
21677;SDS011;11000;50.360;7.582;2022-12-13T00:33:28;29.83;;;15.30;;
21677;SDS011;11000;50.360;7.582;2022-12-13T00:35:49;31.47;;;15.33;;
21677;SDS011;11000;50.360;7.582;2022-12-13T00:38:09;33.93;;;15.53;;
21677;SDS011;11000;50.360;7.582;2022-12-13T00:40:30;33.43;;;16.53;;
21677;SDS011;11000;50.360;7.582;2022-12-13T00:42:50;27.30;;;15.20;;
21677;SDS011;11000;50.360;7.582;2022-12-13T00:45:11;31.10;;;15.13;;
21677;SDS011;11000;50.360;7.582;2022-12-13T00:47:32;30.23;;;15.73;;
21677;SDS011;11000;50.360;7.582;2022-12-13T00:49:52;33.10;;;16.57;;
21677;SDS011;11000;50.360;7.582;2022-12-13T00:52:13;31.33;;;15.37;;
21677;SDS011;11000;50.360;7.582;2022-12-13T00:54:33;35.37;;;16.90;;
21677;SDS011;11000;50.360;7.582;2022-12-13T00:56:54;37.43;;;17.30;;
21677;SDS011;11000;50.360;7.582;2022-12-13T00:59:14;36.47;;;17.83;;
21677;SDS011;11000;50.360;7.582;2022-12-13T01:01:35;39.03;;;18.20;;
21677;SDS011;11000;50.360;7.582;2022-12-13T01:03:57;35.70;;;17.03;;
21677;SDS011;11000;50.360;7.582;2022-12-13T01:06:20;33.30;;;16.57;;
21677;SDS011;11000;50.360;7.582;2022-12-13T01:08:42;35.37;;;17.00;;
21677;SDS011;11000;50.360;7.582;2022-12-13T01:11:03;35.43;;;18.80;;
21677;SDS011;11000;50.360;7.582;2022-12-13T01:13:25;34.17;;;17.40;;
21677;SDS011;11000;50.360;7.582;2022-12-13T01:15:45;40.40;;;17.80;;
21677;SDS011;11000;50.360;7.582;2022-12-13T01:18:06;39.30;;;19.00;;
21677;SDS011;11000;50.360;7.582;2022-12-13T01:20:27;34.97;;;17.93;;
21677;SDS011;11000;50.360;7.582;2022-12-13T01:22:48;41.60;;;19.40;;
21677;SDS011;11000;50.360;7.582;2022-12-13T01:25:08;36.90;;;17.63;;
21677;SDS011;11000;50.360;7.582;2022-12-13T01:27:29;39.70;;;18.03;;
21677;SDS011;11000;50.360;7.582;2022-12-13T01:29:49;35.70;;;17.80;;
21677;SDS011;11000;50.360;7.582;2022-12-13T01:32:10;38.83;;;17.93;;
21677;SDS011;11000;50.360;7.582;2022-12-13T01:34:30;34.37;;;16.93;;
21677;SDS011;11000;50.360;7.582;2022-12-13T01:36:51;35.07;;;17.47;;
21677;SDS011;11000;50.360;7.582;2022-12-13T01:39:12;30.80;;;17.17;;
21677;SDS011;11000;50.360;7.582;2022-12-13T01:41:34;34.53;;;17.30;;
21677;SDS011;11000;50.360;7.582;2022-12-13T01:43:56;37.73;;;17.27;;
21677;SDS011;11000;50.360;7.582;2022-12-13T01:46:20;36.67;;;18.83;;
21677;SDS011;11000;50.360;7.582;2022-12-13T01:48:51;39.30;;;19.67;;
21677;SDS011;11000;50.360;7.582;2022-12-13T01:51:18;36.23;;;18.93;;
21677;SDS011;11000;50.360;7.582;2022-12-13T01:53:43;46.00;;;21.83;;
21677;SDS011;11000;50.360;7.582;2022-12-13T01:56:09;44.83;;;20.20;;
21677;SDS011;11000;50.360;7.582;2022-12-13T01:58:34;43.63;;;20.00;;
21677;SDS011;11000;50.360;7.582;2022-12-13T02:00:57;43.00;;;19.70;;
21677;SDS011;11000;50.360;7.582;2022-12-13T02:03:20;46.23;;;21.13;;
21677;SDS011;11000;50.360;7.582;2022-12-13T02:05:43;40.90;;;19.93;;
21677;SDS011;11000;50.360;7.582;2022-12-13T02:08:10;43.60;;;20.17;;
21677;SDS011;11000;50.360;7.582;2022-12-13T02:10:33;43.57;;;19.80;;
21677;SDS011;11000;50.360;7.582;2022-12-13T02:12:53;41.43;;;20.93;;
21677;SDS011;11000;50.360;7.582;2022-12-13T02:15:15;42.60;;;19.73;;
21677;SDS011;11000;50.360;7.582;2022-12-13T02:17:46;43.63;;;20.63;;
21677;SDS011;11000;50.360;7.582;2022-12-13T02:20:27;41.57;;;19.90;;
21677;SDS011;11000;50.360;7.582;2022-12-13T02:26:12;42.20;;;20.63;;
21677;SDS011;11000;50.360;7.582;2022-12-13T02:31:41;41.90;;;19.73;;
21677;SDS011;11000;50.360;7.582;2022-12-13T02:34:18;41.63;;;19.13;;
21677;SDS011;11000;50.360;7.582;2022-12-13T02:39:07;42.67;;;20.60;;
21677;SDS011;11000;50.360;7.582;2022-12-13T02:41:47;40.87;;;20.07;;
21677;SDS011;11000;50.360;7.582;2022-12-13T02:44:14;41.23;;;18.23;;
21677;SDS011;11000;50.360;7.582;2022-12-13T02:46:40;37.97;;;19.60;;
21677;SDS011;11000;50.360;7.582;2022-12-13T02:49:08;37.13;;;18.73;;
21677;SDS011;11000;50.360;7.582;2022-12-13T02:51:29;37.03;;;18.53;;
21677;SDS011;11000;50.360;7.582;2022-12-13T02:53:51;39.53;;;18.53;;
21677;SDS011;11000;50.360;7.582;2022-12-13T02:56:12;40.10;;;18.93;;
21677;SDS011;11000;50.360;7.582;2022-12-13T02:58:33;41.93;;;19.00;;
21677;SDS011;11000;50.360;7.582;2022-12-13T03:01:10;37.70;;;18.43;;
21677;SDS011;11000;50.360;7.582;2022-12-13T03:04:00;34.53;;;17.83;;
21677;SDS011;11000;50.360;7.582;2022-12-13T03:09:17;38.43;;;17.47;;
21677;SDS011;11000;50.360;7.582;2022-12-13T03:14:27;38.03;;;18.60;;
21677;SDS011;11000;50.360;7.582;2022-12-13T03:16:48;36.80;;;17.53;;
21677;SDS011;11000;50.360;7.582;2022-12-13T03:19:11;38.53;;;18.43;;
21677;SDS011;11000;50.360;7.582;2022-12-13T03:21:39;35.40;;;17.40;;
21677;SDS011;11000;50.360;7.582;2022-12-13T03:24:04;38.80;;;17.77;;
21677;SDS011;11000;50.360;7.582;2022-12-13T03:26:25;43.47;;;18.10;;
21677;SDS011;11000;50.360;7.582;2022-12-13T03:28:46;43.97;;;20.23;;
21677;SDS011;11000;50.360;7.582;2022-12-13T03:31:07;40.40;;;19.93;;
21677;SDS011;11000;50.360;7.582;2022-12-13T03:33:28;35.57;;;17.97;;
21677;SDS011;11000;50.360;7.582;2022-12-13T03:35:48;42.70;;;20.43;;
21677;SDS011;11000;50.360;7.582;2022-12-13T03:38:09;36.23;;;18.17;;
21677;SDS011;11000;50.360;7.582;2022-12-13T03:40:31;39.23;;;18.67;;
21677;SDS011;11000;50.360;7.582;2022-12-13T03:42:53;36.57;;;18.27;;
21677;SDS011;11000;50.360;7.582;2022-12-13T03:45:13;37.50;;;19.13;;
21677;SDS011;11000;50.360;7.582;2022-12-13T03:47:34;36.30;;;17.83;;
21677;SDS011;11000;50.360;7.582;2022-12-13T03:49:54;36.53;;;17.10;;
21677;SDS011;11000;50.360;7.582;2022-12-13T03:52:15;34.50;;;17.43;;
21677;SDS011;11000;50.360;7.582;2022-12-13T03:54:35;35.20;;;17.10;;
21677;SDS011;11000;50.360;7.582;2022-12-13T03:56:56;37.40;;;16.53;;
21677;SDS011;11000;50.360;7.582;2022-12-13T03:59:17;33.80;;;17.27;;
21677;SDS011;11000;50.360;7.582;2022-12-13T04:01:37;36.57;;;17.67;;
21677;SDS011;11000;50.360;7.582;2022-12-13T04:03:58;36.10;;;18.10;;
21677;SDS011;11000;50.360;7.582;2022-12-13T04:06:18;40.77;;;17.60;;
21677;SDS011;11000;50.360;7.582;2022-12-13T04:08:38;41.47;;;19.20;;
21677;SDS011;11000;50.360;7.582;2022-12-13T04:10:59;42.00;;;20.10;;
21677;SDS011;11000;50.360;7.582;2022-12-13T04:13:40;43.80;;;19.20;;
21677;SDS011;11000;50.360;7.582;2022-12-13T04:16:00;44.00;;;19.90;;
21677;SDS011;11000;50.360;7.582;2022-12-13T04:18:22;41.27;;;19.20;;
21677;SDS011;11000;50.360;7.582;2022-12-13T04:20:42;42.07;;;19.50;;
21677;SDS011;11000;50.360;7.582;2022-12-13T04:23:03;42.67;;;20.33;;
21677;SDS011;11000;50.360;7.582;2022-12-13T04:25:24;38.97;;;20.33;;
21677;SDS011;11000;50.360;7.582;2022-12-13T04:27:45;47.10;;;20.27;;
21677;SDS011;11000;50.360;7.582;2022-12-13T04:30:06;38.07;;;18.63;;
21677;SDS011;11000;50.360;7.582;2022-12-13T04:32:27;45.63;;;20.07;;
21677;SDS011;11000;50.360;7.582;2022-12-13T04:34:47;39.07;;;19.67;;
21677;SDS011;11000;50.360;7.582;2022-12-13T04:37:08;44.83;;;20.70;;
21677;SDS011;11000;50.360;7.582;2022-12-13T04:39:28;43.50;;;20.17;;
21677;SDS011;11000;50.360;7.582;2022-12-13T04:41:49;43.27;;;20.53;;
21677;SDS011;11000;50.360;7.582;2022-12-13T04:44:11;41.07;;;19.53;;
21677;SDS011;11000;50.360;7.582;2022-12-13T04:46:32;39.43;;;19.50;;
21677;SDS011;11000;50.360;7.582;2022-12-13T04:48:53;43.20;;;19.17;;
21677;SDS011;11000;50.360;7.582;2022-12-13T04:51:14;46.90;;;20.43;;
21677;SDS011;11000;50.360;7.582;2022-12-13T04:53:35;43.27;;;20.30;;
21677;SDS011;11000;50.360;7.582;2022-12-13T04:55:56;44.57;;;19.90;;
21677;SDS011;11000;50.360;7.582;2022-12-13T04:58:17;47.20;;;21.60;;
21677;SDS011;11000;50.360;7.582;2022-12-13T05:00:38;41.80;;;18.67;;
21677;SDS011;11000;50.360;7.582;2022-12-13T05:02:59;43.10;;;20.10;;
21677;SDS011;11000;50.360;7.582;2022-12-13T05:05:20;40.60;;;18.83;;
21677;SDS011;11000;50.360;7.582;2022-12-13T05:07:41;40.80;;;20.10;;
21677;SDS011;11000;50.360;7.582;2022-12-13T05:10:01;46.97;;;19.83;;
21677;SDS011;11000;50.360;7.582;2022-12-13T05:12:25;47.00;;;20.00;;
21677;SDS011;11000;50.360;7.582;2022-12-13T05:14:46;43.77;;;20.47;;
21677;SDS011;11000;50.360;7.582;2022-12-13T05:17:06;43.50;;;20.33;;
21677;SDS011;11000;50.360;7.582;2022-12-13T05:19:27;44.23;;;20.97;;
21677;SDS011;11000;50.360;7.582;2022-12-13T05:21:48;43.00;;;20.10;;
21677;SDS011;11000;50.360;7.582;2022-12-13T05:24:08;43.47;;;19.33;;
21677;SDS011;11000;50.360;7.582;2022-12-13T05:26:29;41.47;;;19.40;;
21677;SDS011;11000;50.360;7.582;2022-12-13T05:28:49;39.60;;;19.77;;
21677;SDS011;11000;50.360;7.582;2022-12-13T05:31:10;43.20;;;18.77;;
21677;SDS011;11000;50.360;7.582;2022-12-13T05:33:31;35.47;;;17.83;;
21677;SDS011;11000;50.360;7.582;2022-12-13T05:35:52;42.70;;;18.43;;
21677;SDS011;11000;50.360;7.582;2022-12-13T05:38:12;36.73;;;17.50;;
21677;SDS011;11000;50.360;7.582;2022-12-13T05:40:33;41.13;;;17.67;;
21677;SDS011;11000;50.360;7.582;2022-12-13T05:42:54;38.57;;;18.47;;
21677;SDS011;11000;50.360;7.582;2022-12-13T05:45:16;36.57;;;17.17;;
21677;SDS011;11000;50.360;7.582;2022-12-13T05:47:37;40.17;;;16.70;;
21677;SDS011;11000;50.360;7.582;2022-12-13T05:49:58;38.77;;;17.90;;
21677;SDS011;11000;50.360;7.582;2022-12-13T05:52:19;35.27;;;17.43;;
21677;SDS011;11000;50.360;7.582;2022-12-13T05:54:41;37.73;;;17.50;;
21677;SDS011;11000;50.360;7.582;2022-12-13T05:57:01;43.73;;;17.23;;
21677;SDS011;11000;50.360;7.582;2022-12-13T05:59:21;38.07;;;17.07;;
21677;SDS011;11000;50.360;7.582;2022-12-13T06:01:42;38.77;;;16.60;;
21677;SDS011;11000;50.360;7.582;2022-12-13T06:04:02;38.37;;;16.87;;
21677;SDS011;11000;50.360;7.582;2022-12-13T06:06:23;32.63;;;15.70;;
21677;SDS011;11000;50.360;7.582;2022-12-13T06:08:44;34.03;;;15.93;;
21677;SDS011;11000;50.360;7.582;2022-12-13T06:11:05;32.03;;;15.80;;
21677;SDS011;11000;50.360;7.582;2022-12-13T06:13:26;30.50;;;15.43;;
21677;SDS011;11000;50.360;7.582;2022-12-13T06:15:47;32.40;;;14.90;;
21677;SDS011;11000;50.360;7.582;2022-12-13T06:18:08;35.23;;;15.63;;
21677;SDS011;11000;50.360;7.582;2022-12-13T06:20:29;34.97;;;15.70;;
21677;SDS011;11000;50.360;7.582;2022-12-13T06:22:50;34.20;;;15.60;;
21677;SDS011;11000;50.360;7.582;2022-12-13T06:25:11;31.93;;;15.03;;
21677;SDS011;11000;50.360;7.582;2022-12-13T06:27:31;37.20;;;18.17;;
21677;SDS011;11000;50.360;7.582;2022-12-13T06:29:51;35.00;;;16.73;;
21677;SDS011;11000;50.360;7.582;2022-12-13T06:32:12;32.07;;;15.93;;
21677;SDS011;11000;50.360;7.582;2022-12-13T06:34:34;29.70;;;14.77;;
21677;SDS011;11000;50.360;7.582;2022-12-13T06:36:55;33.40;;;15.57;;
21677;SDS011;11000;50.360;7.582;2022-12-13T06:39:16;33.70;;;15.60;;
21677;SDS011;11000;50.360;7.582;2022-12-13T06:41:36;32.53;;;14.80;;
21677;SDS011;11000;50.360;7.582;2022-12-13T06:43:57;33.37;;;15.43;;
21677;SDS011;11000;50.360;7.582;2022-12-13T06:46:17;33.17;;;16.43;;
21677;SDS011;11000;50.360;7.582;2022-12-13T06:48:38;29.47;;;15.20;;
21677;SDS011;11000;50.360;7.582;2022-12-13T06:51:03;34.43;;;14.87;;
21677;SDS011;11000;50.360;7.582;2022-12-13T06:53:24;30.27;;;14.20;;
21677;SDS011;11000;50.360;7.582;2022-12-13T06:55:44;31.87;;;15.43;;
21677;SDS011;11000;50.360;7.582;2022-12-13T06:58:05;33.80;;;15.37;;
21677;SDS011;11000;50.360;7.582;2022-12-13T07:00:26;32.83;;;16.00;;
21677;SDS011;11000;50.360;7.582;2022-12-13T07:02:50;31.70;;;16.50;;
21677;SDS011;11000;50.360;7.582;2022-12-13T07:05:14;34.40;;;16.20;;
21677;SDS011;11000;50.360;7.582;2022-12-13T07:07:34;37.23;;;16.50;;
21677;SDS011;11000;50.360;7.582;2022-12-13T07:09:55;33.77;;;15.73;;
21677;SDS011;11000;50.360;7.582;2022-12-13T07:12:15;36.80;;;16.00;;
21677;SDS011;11000;50.360;7.582;2022-12-13T07:14:36;34.57;;;17.27;;
21677;SDS011;11000;50.360;7.582;2022-12-13T07:16:57;33.83;;;17.27;;
21677;SDS011;11000;50.360;7.582;2022-12-13T07:19:18;39.17;;;18.70;;
21677;SDS011;11000;50.360;7.582;2022-12-13T07:21:38;38.10;;;18.03;;
21677;SDS011;11000;50.360;7.582;2022-12-13T07:23:59;33.30;;;17.33;;
21677;SDS011;11000;50.360;7.582;2022-12-13T07:26:21;36.23;;;17.47;;
21677;SDS011;11000;50.360;7.582;2022-12-13T07:28:42;35.17;;;17.27;;
21677;SDS011;11000;50.360;7.582;2022-12-13T07:31:04;37.77;;;18.80;;
21677;SDS011;11000;50.360;7.582;2022-12-13T07:33:26;38.87;;;17.77;;
21677;SDS011;11000;50.360;7.582;2022-12-13T07:35:48;37.30;;;18.03;;
21677;SDS011;11000;50.360;7.582;2022-12-13T07:38:09;47.27;;;22.00;;
21677;SDS011;11000;50.360;7.582;2022-12-13T07:40:32;40.80;;;20.20;;
21677;SDS011;11000;50.360;7.582;2022-12-13T07:42:54;38.97;;;19.80;;
21677;SDS011;11000;50.360;7.582;2022-12-13T07:45:15;50.27;;;23.13;;
21677;SDS011;11000;50.360;7.582;2022-12-13T07:47:36;42.63;;;20.23;;
21677;SDS011;11000;50.360;7.582;2022-12-13T07:49:56;44.60;;;21.07;;
21677;SDS011;11000;50.360;7.582;2022-12-13T07:52:17;42.40;;;18.57;;
21677;SDS011;11000;50.360;7.582;2022-12-13T07:54:38;44.70;;;20.10;;
21677;SDS011;11000;50.360;7.582;2022-12-13T07:56:58;39.27;;;19.17;;
21677;SDS011;11000;50.360;7.582;2022-12-13T07:59:19;39.80;;;20.20;;
21677;SDS011;11000;50.360;7.582;2022-12-13T08:01:39;43.80;;;20.23;;
21677;SDS011;11000;50.360;7.582;2022-12-13T08:04:00;41.63;;;18.63;;
21677;SDS011;11000;50.360;7.582;2022-12-13T08:06:21;39.53;;;17.80;;
21677;SDS011;11000;50.360;7.582;2022-12-13T08:08:41;38.07;;;17.63;;
21677;SDS011;11000;50.360;7.582;2022-12-13T08:11:03;38.97;;;18.73;;
21677;SDS011;11000;50.360;7.582;2022-12-13T08:13:25;40.83;;;17.93;;
21677;SDS011;11000;50.360;7.582;2022-12-13T08:15:45;36.90;;;17.47;;
21677;SDS011;11000;50.360;7.582;2022-12-13T08:18:09;37.20;;;17.30;;
21677;SDS011;11000;50.360;7.582;2022-12-13T08:20:30;36.77;;;17.57;;
21677;SDS011;11000;50.360;7.582;2022-12-13T08:22:54;43.67;;;20.27;;
21677;SDS011;11000;50.360;7.582;2022-12-13T08:25:16;40.37;;;18.50;;
21677;SDS011;11000;50.360;7.582;2022-12-13T08:27:37;39.37;;;17.93;;
21677;SDS011;11000;50.360;7.582;2022-12-13T08:29:57;36.70;;;19.33;;
21677;SDS011;11000;50.360;7.582;2022-12-13T08:32:18;37.17;;;17.77;;
21677;SDS011;11000;50.360;7.582;2022-12-13T08:34:39;38.90;;;18.80;;
21677;SDS011;11000;50.360;7.582;2022-12-13T08:37:00;42.03;;;18.93;;
21677;SDS011;11000;50.360;7.582;2022-12-13T08:39:21;38.50;;;19.23;;
21677;SDS011;11000;50.360;7.582;2022-12-13T08:41:41;37.83;;;18.27;;
21677;SDS011;11000;50.360;7.582;2022-12-13T08:44:02;39.80;;;17.87;;
21677;SDS011;11000;50.360;7.582;2022-12-13T08:46:22;38.80;;;18.67;;
21677;SDS011;11000;50.360;7.582;2022-12-13T08:48:43;36.53;;;17.47;;
21677;SDS011;11000;50.360;7.582;2022-12-13T08:51:07;40.83;;;18.83;;
21677;SDS011;11000;50.360;7.582;2022-12-13T08:53:32;40.47;;;18.87;;
21677;SDS011;11000;50.360;7.582;2022-12-13T08:55:58;39.20;;;19.40;;
21677;SDS011;11000;50.360;7.582;2022-12-13T08:58:22;36.27;;;18.17;;
21677;SDS011;11000;50.360;7.582;2022-12-13T09:00:43;40.10;;;19.20;;
21677;SDS011;11000;50.360;7.582;2022-12-13T09:03:05;42.37;;;18.73;;
21677;SDS011;11000;50.360;7.582;2022-12-13T09:05:25;40.47;;;19.67;;
21677;SDS011;11000;50.360;7.582;2022-12-13T09:07:46;38.87;;;17.93;;
21677;SDS011;11000;50.360;7.582;2022-12-13T09:10:07;37.37;;;18.80;;
21677;SDS011;11000;50.360;7.582;2022-12-13T09:12:28;40.70;;;18.77;;
21677;SDS011;11000;50.360;7.582;2022-12-13T09:14:49;38.87;;;19.17;;
21677;SDS011;11000;50.360;7.582;2022-12-13T09:17:09;36.70;;;18.83;;
21677;SDS011;11000;50.360;7.582;2022-12-13T09:19:30;40.13;;;18.67;;
21677;SDS011;11000;50.360;7.582;2022-12-13T09:21:50;40.70;;;19.07;;
21677;SDS011;11000;50.360;7.582;2022-12-13T09:24:11;37.97;;;18.80;;
21677;SDS011;11000;50.360;7.582;2022-12-13T09:26:31;39.60;;;18.17;;
21677;SDS011;11000;50.360;7.582;2022-12-13T09:28:52;39.63;;;18.70;;
21677;SDS011;11000;50.360;7.582;2022-12-13T09:31:13;35.70;;;17.93;;
21677;SDS011;11000;50.360;7.582;2022-12-13T09:33:36;38.07;;;19.03;;
21677;SDS011;11000;50.360;7.582;2022-12-13T09:35:57;40.97;;;18.63;;
21677;SDS011;11000;50.360;7.582;2022-12-13T09:38:18;38.60;;;18.47;;
21677;SDS011;11000;50.360;7.582;2022-12-13T09:40:39;41.07;;;18.20;;
21677;SDS011;11000;50.360;7.582;2022-12-13T09:43:02;37.40;;;17.37;;
21677;SDS011;11000;50.360;7.582;2022-12-13T09:45:24;34.50;;;18.60;;
21677;SDS011;11000;50.360;7.582;2022-12-13T09:47:45;33.43;;;17.53;;
21677;SDS011;11000;50.360;7.582;2022-12-13T09:50:08;31.90;;;16.63;;
21677;SDS011;11000;50.360;7.582;2022-12-13T09:52:37;34.13;;;16.93;;
21677;SDS011;11000;50.360;7.582;2022-12-13T09:55:00;35.60;;;16.80;;
21677;SDS011;11000;50.360;7.582;2022-12-13T09:57:30;35.17;;;16.17;;
21677;SDS011;11000;50.360;7.582;2022-12-13T09:59:51;31.83;;;16.57;;
21677;SDS011;11000;50.360;7.582;2022-12-13T10:02:22;29.77;;;14.40;;
21677;SDS011;11000;50.360;7.582;2022-12-13T10:04:45;31.80;;;13.97;;
21677;SDS011;11000;50.360;7.582;2022-12-13T10:07:10;33.37;;;15.73;;
21677;SDS011;11000;50.360;7.582;2022-12-13T10:09:37;31.07;;;15.50;;
21677;SDS011;11000;50.360;7.582;2022-12-13T10:11:57;31.87;;;15.90;;
21677;SDS011;11000;50.360;7.582;2022-12-13T10:14:26;27.57;;;13.80;;
21677;SDS011;11000;50.360;7.582;2022-12-13T10:16:53;29.20;;;14.67;;
21677;SDS011;11000;50.360;7.582;2022-12-13T10:19:17;29.13;;;13.43;;
21677;SDS011;11000;50.360;7.582;2022-12-13T10:21:47;31.27;;;14.37;;
21677;SDS011;11000;50.360;7.582;2022-12-13T10:26:40;46.50;;;20.10;;
21677;SDS011;11000;50.360;7.582;2022-12-13T10:29:02;34.53;;;16.07;;
21677;SDS011;11000;50.360;7.582;2022-12-13T10:31:24;28.90;;;14.23;;
21677;SDS011;11000;50.360;7.582;2022-12-13T10:33:50;33.03;;;16.20;;
21677;SDS011;11000;50.360;7.582;2022-12-13T10:36:15;32.20;;;15.97;;
21677;SDS011;11000;50.360;7.582;2022-12-13T10:38:53;29.10;;;13.90;;
21677;SDS011;11000;50.360;7.582;2022-12-13T10:44:05;27.23;;;13.20;;
21677;SDS011;11000;50.360;7.582;2022-12-13T10:46:28;27.33;;;13.30;;
21677;SDS011;11000;50.360;7.582;2022-12-13T10:48:51;31.50;;;13.03;;
21677;SDS011;11000;50.360;7.582;2022-12-13T10:51:12;24.47;;;12.80;;
21677;SDS011;11000;50.360;7.582;2022-12-13T10:53:35;27.97;;;13.57;;
21677;SDS011;11000;50.360;7.582;2022-12-13T10:55:59;29.53;;;13.60;;
21677;SDS011;11000;50.360;7.582;2022-12-13T10:58:21;27.63;;;13.47;;
21677;SDS011;11000;50.360;7.582;2022-12-13T11:00:42;24.87;;;12.87;;
21677;SDS011;11000;50.360;7.582;2022-12-13T11:03:06;23.37;;;12.50;;
21677;SDS011;11000;50.360;7.582;2022-12-13T11:05:30;27.27;;;13.20;;
21677;SDS011;11000;50.360;7.582;2022-12-13T11:07:54;26.63;;;13.40;;
21677;SDS011;11000;50.360;7.582;2022-12-13T11:10:30;24.53;;;12.63;;
21677;SDS011;11000;50.360;7.582;2022-12-13T11:12:52;22.93;;;11.73;;
21677;SDS011;11000;50.360;7.582;2022-12-13T11:15:21;26.83;;;12.83;;
21677;SDS011;11000;50.360;7.582;2022-12-13T11:17:46;22.40;;;11.93;;
21677;SDS011;11000;50.360;7.582;2022-12-13T11:20:18;22.73;;;11.47;;
21677;SDS011;11000;50.360;7.582;2022-12-13T11:22:42;26.10;;;13.13;;
21677;SDS011;11000;50.360;7.582;2022-12-13T11:25:37;26.33;;;12.60;;
21677;SDS011;11000;50.360;7.582;2022-12-13T11:27:59;25.73;;;13.00;;
21677;SDS011;11000;50.360;7.582;2022-12-13T11:30:45;26.33;;;13.43;;
21677;SDS011;11000;50.360;7.582;2022-12-13T11:33:54;25.40;;;11.03;;
21677;SDS011;11000;50.360;7.582;2022-12-13T11:39:13;24.43;;;11.97;;
21677;SDS011;11000;50.360;7.582;2022-12-13T11:44:20;26.73;;;12.07;;
21677;SDS011;11000;50.360;7.582;2022-12-13T11:46:45;22.07;;;10.60;;
21677;SDS011;11000;50.360;7.582;2022-12-13T11:49:14;23.67;;;11.33;;
21677;SDS011;11000;50.360;7.582;2022-12-13T11:51:39;22.57;;;11.33;;
21677;SDS011;11000;50.360;7.582;2022-12-13T11:54:21;23.63;;;12.07;;
21677;SDS011;11000;50.360;7.582;2022-12-13T11:56:47;28.10;;;13.20;;
21677;SDS011;11000;50.360;7.582;2022-12-13T11:59:20;24.23;;;12.20;;
21677;SDS011;11000;50.360;7.582;2022-12-13T12:02:13;24.33;;;11.43;;
21677;SDS011;11000;50.360;7.582;2022-12-13T12:04:45;21.03;;;10.77;;
21677;SDS011;11000;50.360;7.582;2022-12-13T12:07:11;19.87;;;11.13;;
21677;SDS011;11000;50.360;7.582;2022-12-13T12:09:37;23.87;;;11.47;;
21677;SDS011;11000;50.360;7.582;2022-12-13T12:12:03;19.67;;;11.13;;
21677;SDS011;11000;50.360;7.582;2022-12-13T12:16:58;21.67;;;11.30;;
21677;SDS011;11000;50.360;7.582;2022-12-13T12:19:21;22.53;;;12.27;;
21677;SDS011;11000;50.360;7.582;2022-12-13T12:24:21;20.47;;;10.63;;
21677;SDS011;11000;50.360;7.582;2022-12-13T12:40:35;21.50;;;10.37;;
21677;SDS011;11000;50.360;7.582;2022-12-13T12:51:37;17.87;;;10.33;;
21677;SDS011;11000;50.360;7.582;2022-12-13T13:02:24;17.93;;;10.30;;
21677;SDS011;11000;50.360;7.582;2022-12-13T13:04:59;20.23;;;10.37;;
21677;SDS011;11000;50.360;7.582;2022-12-13T13:07:26;17.03;;;9.77;;
21677;SDS011;11000;50.360;7.582;2022-12-13T13:09:53;17.33;;;9.90;;
21677;SDS011;11000;50.360;7.582;2022-12-13T13:12:15;19.43;;;9.97;;
21677;SDS011;11000;50.360;7.582;2022-12-13T13:14:36;17.77;;;9.67;;
21677;SDS011;11000;50.360;7.582;2022-12-13T13:19:54;36.37;;;17.03;;
21677;SDS011;11000;50.360;7.582;2022-12-13T13:22:35;20.00;;;11.30;;
21677;SDS011;11000;50.360;7.582;2022-12-13T13:24:58;23.23;;;13.33;;
21677;SDS011;11000;50.360;7.582;2022-12-13T13:27:26;19.23;;;10.57;;
21677;SDS011;11000;50.360;7.582;2022-12-13T13:29:49;16.03;;;9.83;;
21677;SDS011;11000;50.360;7.582;2022-12-13T13:34:34;16.87;;;9.50;;
21677;SDS011;11000;50.360;7.582;2022-12-13T13:38:23;15.43;;;9.50;;
21677;SDS011;11000;50.360;7.582;2022-12-13T13:42:32;19.00;;;10.27;;
21677;SDS011;11000;50.360;7.582;2022-12-13T13:47:39;19.03;;;10.33;;
21677;SDS011;11000;50.360;7.582;2022-12-13T13:50:22;18.97;;;10.53;;
21677;SDS011;11000;50.360;7.582;2022-12-13T14:20:28;16.13;;;8.67;;
21677;SDS011;11000;50.360;7.582;2022-12-13T14:23:09;20.27;;;9.63;;
21677;SDS011;11000;50.360;7.582;2022-12-13T14:26:07;19.83;;;10.03;;
21677;SDS011;11000;50.360;7.582;2022-12-13T14:28:42;17.93;;;8.90;;
21677;SDS011;11000;50.360;7.582;2022-12-13T14:33:54;14.53;;;8.33;;
21677;SDS011;11000;50.360;7.582;2022-12-13T14:36:17;15.83;;;8.70;;
21677;SDS011;11000;50.360;7.582;2022-12-13T14:38:45;18.73;;;9.90;;
21677;SDS011;11000;50.360;7.582;2022-12-13T14:41:12;19.27;;;9.80;;
21677;SDS011;11000;50.360;7.582;2022-12-13T14:43:35;18.10;;;9.33;;
21677;SDS011;11000;50.360;7.582;2022-12-13T14:46:00;16.57;;;9.67;;
21677;SDS011;11000;50.360;7.582;2022-12-13T14:48:25;15.77;;;9.23;;
21677;SDS011;11000;50.360;7.582;2022-12-13T14:50:48;18.43;;;9.27;;
21677;SDS011;11000;50.360;7.582;2022-12-13T14:53:32;16.60;;;9.10;;
21677;SDS011;11000;50.360;7.582;2022-12-13T14:58:25;19.27;;;10.87;;
21677;SDS011;11000;50.360;7.582;2022-12-13T15:00:47;20.80;;;11.40;;
21677;SDS011;11000;50.360;7.582;2022-12-13T15:03:10;22.43;;;13.40;;
21677;SDS011;11000;50.360;7.582;2022-12-13T15:05:46;20.07;;;10.57;;
21677;SDS011;11000;50.360;7.582;2022-12-13T15:08:14;21.53;;;10.80;;
21677;SDS011;11000;50.360;7.582;2022-12-13T15:12:59;24.10;;;12.87;;
21677;SDS011;11000;50.360;7.582;2022-12-13T15:15:29;21.73;;;10.93;;
21677;SDS011;11000;50.360;7.582;2022-12-13T15:18:05;21.13;;;10.13;;
21677;SDS011;11000;50.360;7.582;2022-12-13T15:20:29;20.10;;;10.07;;
21677;SDS011;11000;50.360;7.582;2022-12-13T15:23:04;17.70;;;10.07;;
21677;SDS011;11000;50.360;7.582;2022-12-13T15:25:31;20.17;;;10.00;;
21677;SDS011;11000;50.360;7.582;2022-12-13T15:27:53;21.03;;;10.97;;
21677;SDS011;11000;50.360;7.582;2022-12-13T15:30:15;18.07;;;10.23;;
21677;SDS011;11000;50.360;7.582;2022-12-13T15:32:35;18.17;;;10.07;;
21677;SDS011;11000;50.360;7.582;2022-12-13T15:35:16;16.80;;;9.77;;
21677;SDS011;11000;50.360;7.582;2022-12-13T15:37:45;21.40;;;10.70;;
21677;SDS011;11000;50.360;7.582;2022-12-13T15:40:06;22.50;;;10.87;;
21677;SDS011;11000;50.360;7.582;2022-12-13T15:42:30;19.40;;;10.50;;
21677;SDS011;11000;50.360;7.582;2022-12-13T15:44:53;20.30;;;10.87;;
21677;SDS011;11000;50.360;7.582;2022-12-13T15:47:16;19.93;;;10.20;;
21677;SDS011;11000;50.360;7.582;2022-12-13T15:49:59;20.87;;;10.53;;